Time;durP1;ratioP1;P1;durP2;ratioP2;P2;SDS_P1;SDS_P2;PMS_P1;PMS_P2;Temp;Humidity;BMP_temperature;BMP_pressure;BME280_temperature;BME280_humidity;BME280_pressure;Samples;Min_cycle;Max_cycle;Signal;HPM_P1;HPM_P2
2023/07/21 00:00:58;;;;;;;5.23;4.03;;;16.50;99.90;;;;;;4742870;30;20755;-75
2023/07/21 00:03:24;;;;;;;4.13;3.03;;;16.40;99.90;;;;;;4741479;30;20942;-75
2023/07/21 00:05:49;;;;;;;4.93;4.43;;;16.40;99.90;;;;;;4728057;30;20507;-75
2023/07/21 00:08:15;;;;;;;5.73;5.07;;;16.40;99.90;;;;;;4743212;30;20195;-75
2023/07/21 00:10:42;;;;;;;4.57;4.17;;;16.40;99.90;;;;;;4720179;30;20248;-75
2023/07/21 00:13:08;;;;;;;5.40;4.90;;;16.40;99.90;;;;;;4742656;30;20197;-75
2023/07/21 00:15:33;;;;;;;4.60;3.77;;;16.40;99.90;;;;;;4742513;30;20834;-74
2023/07/21 00:17:59;;;;;;;9.13;6.50;;;16.30;99.90;;;;;;4746809;30;20385;-76
2023/07/21 00:20:25;;;;;;;7.60;6.60;;;16.40;99.90;;;;;;4745059;30;20225;-74
2023/07/21 00:22:51;;;;;;;6.13;5.57;;;16.40;99.90;;;;;;4745499;30;20270;-73
2023/07/21 00:25:17;;;;;;;6.27;5.63;;;16.40;99.90;;;;;;4735447;30;20439;-74
2023/07/21 00:27:44;;;;;;;6.97;6.20;;;16.30;99.90;;;;;;4761750;30;20500;-75
2023/07/21 00:30:11;;;;;;;5.60;4.97;;;16.30;99.90;;;;;;4745897;30;20529;-75
2023/07/21 00:32:38;;;;;;;5.80;4.30;;;16.30;99.90;;;;;;4745588;30;20429;-75
2023/07/21 00:35:08;;;;;;;4.47;4.03;;;16.30;99.90;;;;;;4729236;30;20460;-75
2023/07/21 00:37:38;;;;;;;5.30;4.80;;;16.20;99.90;;;;;;4745003;30;20834;-75
2023/07/21 00:40:05;;;;;;;6.00;5.50;;;16.20;99.90;;;;;;4729224;30;20535;-75
2023/07/21 00:42:31;;;;;;;9.50;5.70;;;16.20;99.90;;;;;;4745348;30;20471;-75
2023/07/21 00:44:57;;;;;;;5.40;4.90;;;16.20;99.90;;;;;;4745678;30;20863;-74
2023/07/21 00:47:28;;;;;;;7.43;6.73;;;16.10;99.90;;;;;;4744414;30;20493;-75
2023/07/21 00:49:54;;;;;;;7.70;7.00;;;16.10;99.90;;;;;;4732883;30;20536;-75
2023/07/21 00:52:20;;;;;;;7.10;6.50;;;16.00;99.90;;;;;;4747444;30;20455;-75
2023/07/21 00:54:47;;;;;;;7.47;6.77;;;16.00;99.90;;;;;;4734577;30;20455;-74
2023/07/21 00:57:14;;;;;;;7.07;6.37;;;16.00;99.90;;;;;;4734916;30;20848;-73
2023/07/21 00:59:41;;;;;;;6.53;6.00;;;16.00;99.90;;;;;;4733325;30;20498;-76
2023/07/21 01:02:08;;;;;;;7.43;6.50;;;16.00;99.90;;;;;;4747813;30;20440;-75
2023/07/21 01:04:34;;;;;;;6.80;6.20;;;16.00;99.90;;;;;;4748497;30;20411;-76
2023/07/21 01:07:05;;;;;;;5.20;4.70;;;16.00;99.90;;;;;;4731875;30;20443;-75
2023/07/21 01:09:35;;;;;;;6.37;4.40;;;16.00;99.90;;;;;;4748153;30;20447;-75
2023/07/21 01:12:01;;;;;;;4.17;3.80;;;16.10;99.90;;;;;;4749723;30;20458;-74
2023/07/21 01:14:29;;;;;;;6.00;5.40;;;16.10;99.90;;;;;;4746964;30;20421;-76
2023/07/21 01:16:57;;;;;;;5.90;5.30;;;16.20;99.90;;;;;;4732788;30;20443;-74
2023/07/21 01:19:24;;;;;;;7.43;6.73;;;16.20;99.90;;;;;;4746336;30;20447;-75
2023/07/21 01:22:00;;;;;;;7.33;6.73;;;16.20;99.90;;;;;;4745116;30;20451;-75
2023/07/21 01:24:41;;;;;;;13.80;12.40;;;16.20;99.90;;;;;;4730671;30;20435;-74
2023/07/21 01:27:10;;;;;;;10.30;9.30;;;16.20;99.90;;;;;;4743735;30;20899;-75
2023/07/21 01:29:40;;;;;;;8.80;7.90;;;16.20;99.90;;;;;;4744433;30;20451;-76
2023/07/21 01:32:10;;;;;;;7.10;6.40;;;16.20;99.90;;;;;;4729940;30;20478;-74
2023/07/21 01:34:38;;;;;;;6.60;6.10;;;16.20;99.90;;;;;;4744270;30;20954;-73
2023/07/21 01:37:08;;;;;;;9.60;8.80;;;16.20;99.90;;;;;;4746830;30;20415;-74
2023/07/21 01:39:35;;;;;;;6.80;6.30;;;16.20;99.90;;;;;;4747066;30;20451;-73
2023/07/21 01:42:02;;;;;;;6.90;6.30;;;16.30;99.90;;;;;;4746677;30;20703;-74
2023/07/21 01:44:28;;;;;;;6.50;6.00;;;16.30;99.90;;;;;;4759894;30;20451;-75
2023/07/21 01:46:53;;;;;;;7.83;7.07;;;16.20;99.90;;;;;;4745021;30;20763;-74
2023/07/21 01:49:19;;;;;;;8.10;7.40;;;16.20;99.90;;;;;;4729213;30;20208;-74
2023/07/21 01:51:48;;;;;;;8.40;7.70;;;16.20;99.90;;;;;;4745117;30;20240;-74
2023/07/21 01:54:42;;;;;;;9.00;8.20;;;16.20;99.90;;;;;;4745925;30;20712;-75
2023/07/21 01:57:11;;;;;;;7.07;6.47;;;16.10;99.90;;;;;;4725777;30;20488;-74
2023/07/21 01:59:43;;;;;;;6.80;6.20;;;16.10;99.90;;;;;;4726336;30;20801;-74
2023/07/21 02:02:10;;;;;;;9.70;8.90;;;16.10;99.90;;;;;;4721538;30;20495;-75
2023/07/21 02:04:38;;;;;;;10.57;9.50;;;16.10;99.90;;;;;;4752769;30;20511;-73
2023/07/21 02:07:04;;;;;;;8.67;7.87;;;16.10;99.90;;;;;;4733861;30;20432;-75
2023/07/21 02:09:30;;;;;;;9.13;8.30;;;16.10;99.90;;;;;;4747792;30;20451;-75
2023/07/21 02:11:58;;;;;;;9.90;9.10;;;16.20;99.90;;;;;;4742892;30;20519;-74
2023/07/21 02:14:47;;;;;;;8.77;7.97;;;16.20;99.90;;;;;;4731507;30;20559;-74
2023/07/21 02:17:14;;;;;;;7.43;6.83;;;16.20;99.90;;;;;;4728473;30;20448;-74
2023/07/21 02:19:39;;;;;;;8.20;7.50;;;16.20;99.90;;;;;;4742987;30;20467;-75
2023/07/21 02:22:06;;;;;;;7.80;7.10;;;16.20;99.90;;;;;;4728419;30;20189;-74
2023/07/21 02:24:32;;;;;;;7.10;6.50;;;16.10;99.90;;;;;;4729139;30;20713;-74
2023/07/21 02:26:59;;;;;;;8.03;7.27;;;16.10;99.90;;;;;;4728679;30;20503;-75
2023/07/21 02:29:28;;;;;;;8.53;7.67;;;16.10;99.90;;;;;;4728257;30;20224;-74
2023/07/21 02:31:55;;;;;;;8.10;7.30;;;16.10;99.90;;;;;;4727826;30;20970;-74
2023/07/21 02:34:20;;;;;;;9.97;8.97;;;16.10;99.90;;;;;;4727852;30;20427;-74
2023/07/21 02:36:47;;;;;;;9.20;8.40;;;16.10;99.90;;;;;;4743653;30;20200;-75
2023/07/21 02:39:12;;;;;;;11.47;10.37;;;16.10;99.90;;;;;;4743755;30;20423;-73
2023/07/21 02:41:38;;;;;;;12.40;11.20;;;16.10;99.90;;;;;;4751446;30;20279;-74
2023/07/21 02:44:04;;;;;;;12.60;11.40;;;16.10;99.90;;;;;;4744047;30;20588;-74
2023/07/21 02:46:30;;;;;;;11.63;10.50;;;16.20;99.90;;;;;;4744728;30;20203;-73
2023/07/21 02:48:55;;;;;;;12.10;11.00;;;16.20;99.90;;;;;;4745940;30;20435;-74
2023/07/21 02:51:21;;;;;;;13.67;12.30;;;16.20;99.90;;;;;;4747432;30;20254;-75
2023/07/21 02:53:47;;;;;;;17.07;15.27;;;16.20;99.90;;;;;;4747171;30;20594;-74
2023/07/21 02:56:14;;;;;;;17.07;15.37;;;16.20;99.90;;;;;;4746205;30;20467;-75
2023/07/21 02:58:57;;;;;;;14.30;12.83;;;16.20;99.90;;;;;;4747158;30;20177;-76
2023/07/21 03:01:23;;;;;;;14.43;13.23;;;16.20;99.90;;;;;;4744035;30;20427;-74
2023/07/21 03:03:49;;;;;;;13.27;12.03;;;16.20;99.90;;;;;;4744451;30;20486;-75
2023/07/21 03:06:16;;;;;;;11.50;8.80;;;16.10;99.90;;;;;;4744041;30;20192;-74
2023/07/21 03:08:42;;;;;;;9.83;8.90;;;16.10;99.90;;;;;;4728592;30;20439;-74
2023/07/21 03:11:13;;;;;;;9.03;8.13;;;16.10;99.90;;;;;;4732492;30;20470;-75
2023/07/21 03:13:50;;;;;;;8.60;7.60;;;16.10;99.90;;;;;;4729672;30;20454;-73
2023/07/21 03:16:16;;;;;;;15.43;13.83;;;16.10;99.90;;;;;;4728575;30;20456;-74
2023/07/21 03:18:48;;;;;;;16.37;14.67;;;16.10;99.90;;;;;;4742937;30;20417;-75
2023/07/21 03:21:17;;;;;;;12.53;11.27;;;16.10;99.90;;;;;;4743856;30;20529;-74
2023/07/21 03:23:44;;;;;;;10.77;9.87;;;16.10;99.90;;;;;;4743372;30;20424;-73
2023/07/21 03:26:11;;;;;;;10.83;9.90;;;16.10;99.90;;;;;;4742956;30;20443;-75
2023/07/21 03:28:41;;;;;;;8.67;7.87;;;16.10;99.90;;;;;;4734941;30;20493;-73
2023/07/21 03:31:09;;;;;;;9.13;8.33;;;16.10;99.90;;;;;;4742842;30;20467;-75
2023/07/21 03:33:41;;;;;;;14.90;13.50;;;16.10;99.90;;;;;;4742181;30;20204;-74
2023/07/21 03:36:13;;;;;;;10.63;9.73;;;16.10;99.90;;;;;;4741538;30;20467;-73
2023/07/21 03:38:39;;;;;;;8.50;7.70;;;16.10;99.90;;;;;;4741999;30;20517;-74
2023/07/21 03:41:06;;;;;;;7.50;6.90;;;16.10;99.90;;;;;;4743706;30;20315;-75
2023/07/21 03:43:35;;;;;;;6.77;6.17;;;16.10;99.90;;;;;;4744867;30;20202;-74
2023/07/21 03:46:03;;;;;;;6.43;5.83;;;16.20;99.90;;;;;;4743141;30;20464;-75
2023/07/21 03:48:33;;;;;;;6.70;6.10;;;16.20;99.90;;;;;;4729212;30;20451;-73
2023/07/21 03:51:05;;;;;;;6.53;5.93;;;16.20;99.90;;;;;;4729525;30;20440;-75
2023/07/21 03:53:37;;;;;;;9.23;7.50;;;16.20;99.90;;;;;;4728907;30;20885;-74
2023/07/21 03:56:05;;;;;;;9.00;8.20;;;16.30;99.90;;;;;;4730468;30;20830;-74
2023/07/21 03:58:31;;;;;;;8.50;7.70;;;16.30;99.90;;;;;;4727559;30;20427;-73
2023/07/21 04:00:59;;;;;;;9.70;7.80;;;16.30;99.90;;;;;;4728291;30;20503;-74
2023/07/21 04:03:24;;;;;;;8.47;7.77;;;16.30;99.90;;;;;;4744171;30;20581;-74
2023/07/21 04:05:51;;;;;;;8.03;7.33;;;16.40;99.90;;;;;;4728120;30;20448;-74
2023/07/21 04:08:18;;;;;;;7.63;6.93;;;16.40;99.90;;;;;;4726907;30;20500;-75
2023/07/21 04:10:44;;;;;;;9.10;8.20;;;16.40;99.90;;;;;;4741863;30;20491;-74
2023/07/21 04:13:10;;;;;;;10.03;6.40;;;16.40;99.90;;;;;;4726515;30;20896;-74
2023/07/21 04:15:36;;;;;;;6.00;5.50;;;16.50;99.90;;;;;;4726438;30;20497;-75
2023/07/21 04:18:02;;;;;;;8.40;7.33;;;16.50;99.90;;;;;;4727732;30;20193;-74
2023/07/21 04:20:29;;;;;;;10.20;9.30;;;16.50;99.90;;;;;;4743180;30;20462;-75
2023/07/21 04:22:57;;;;;;;8.70;7.80;;;16.50;99.90;;;;;;4727556;30;20714;-73
2023/07/21 04:25:23;;;;;;;8.70;7.90;;;16.40;99.90;;;;;;4739008;30;20570;-75
2023/07/21 04:27:50;;;;;;;7.50;6.87;;;16.40;99.90;;;;;;4726016;30;20190;-75
2023/07/21 04:30:18;;;;;;;6.70;6.00;;;16.40;99.90;;;;;;4727823;30;20636;-74
2023/07/21 04:32:44;;;;;;;8.33;7.33;;;16.50;99.90;;;;;;4729031;30;20915;-73
2023/07/21 04:35:10;;;;;;;9.87;8.87;;;16.50;99.90;;;;;;4727490;30;20479;-76
2023/07/21 04:37:38;;;;;;;12.37;11.07;;;16.50;99.90;;;;;;4743174;30;20185;-74
2023/07/21 04:40:06;;;;;;;14.50;13.07;;;16.50;99.90;;;;;;4743710;30;20719;-76
2023/07/21 04:42:34;;;;;;;12.67;10.00;;;16.50;99.90;;;;;;4729584;30;20417;-74
2023/07/21 04:45:00;;;;;;;8.33;7.63;;;16.50;99.90;;;;;;4728527;30;20496;-74
2023/07/21 04:47:26;;;;;;;6.60;6.00;;;16.50;99.90;;;;;;4727985;30;20431;-75
2023/07/21 04:50:02;;;;;;;6.20;5.60;;;16.50;99.90;;;;;;4742979;30;20464;-74
2023/07/21 04:52:27;;;;;;;11.33;10.17;;;16.60;99.90;;;;;;4743496;30;20450;-74
2023/07/21 04:54:53;;;;;;;8.50;7.70;;;16.60;99.90;;;;;;4733080;30;20259;-75
2023/07/21 04:57:20;;;;;;;6.57;5.97;;;16.70;99.90;;;;;;4737784;30;20189;-74
2023/07/21 04:59:47;;;;;;;6.27;5.77;;;16.80;99.90;;;;;;4742595;30;20459;-75
2023/07/21 05:02:12;;;;;;;4.50;3.57;;;16.80;99.90;;;;;;4744205;30;20696;-75
2023/07/21 05:04:38;;;;;;;9.23;8.30;;;16.90;99.90;;;;;;4728920;30;20195;-77
2023/07/21 05:07:05;;;;;;;11.30;10.10;;;17.00;99.90;;;;;;4729817;30;20191;-74
2023/07/21 05:09:33;;;;;;;10.83;9.77;;;17.00;99.90;;;;;;4743367;30;20230;-78
2023/07/21 05:12:07;;;;;;;10.10;9.20;;;17.10;99.90;;;;;;4743211;30;20464;-74
2023/07/21 05:14:50;;;;;;;6.10;5.70;;;17.20;99.90;;;;;;4728828;30;20461;-76
2023/07/21 05:17:41;;;;;;;10.40;9.40;;;17.30;99.90;;;;;;4745109;30;20480;-74
2023/07/21 05:20:25;;;;;;;10.33;9.37;;;17.40;99.90;;;;;;4745723;30;20858;-75
2023/07/21 05:23:00;;;;;;;10.57;9.57;;;17.60;99.90;;;;;;4730651;30;20437;-75
2023/07/21 05:26:00;;;;;;;20.67;18.57;;;17.60;99.90;;;;;;4745979;30;20442;-75
2023/07/21 05:28:29;;;;;;;14.13;12.90;;;17.60;99.90;;;;;;4729013;30;20438;-75
2023/07/21 05:30:55;;;;;;;15.53;14.03;;;17.60;99.90;;;;;;4739139;30;20554;-75
2023/07/21 05:33:33;;;;;;;16.17;14.77;;;17.70;99.90;;;;;;4731274;30;20420;-76
2023/07/21 05:36:10;;;;;;;10.77;9.77;;;17.70;99.90;;;;;;4733883;30;20465;-73
2023/07/21 05:38:37;;;;;;;16.40;12.90;;;17.70;99.90;;;;;;4733925;30;20410;-75
2023/07/21 05:41:04;;;;;;;12.27;11.07;;;17.70;99.90;;;;;;4762370;30;20455;-74
2023/07/21 05:43:33;;;;;;;13.90;12.60;;;17.70;99.90;;;;;;4753559;30;20427;-76
2023/07/21 05:46:02;;;;;;;16.30;14.77;;;17.70;99.90;;;;;;4749870;30;20444;-74
2023/07/21 05:48:29;;;;;;;20.13;18.33;;;17.80;99.90;;;;;;4753376;30;20643;-75
2023/07/21 05:50:59;;;;;;;23.67;21.37;;;17.80;99.90;;;;;;4734730;30;20466;-76
2023/07/21 05:53:25;;;;;;;21.70;19.70;;;17.80;99.90;;;;;;4734515;30;20442;-75
2023/07/21 05:55:51;;;;;;;22.50;20.30;;;17.80;99.90;;;;;;4747974;30;20695;-74
2023/07/21 05:58:26;;;;;;;19.67;17.87;;;17.90;99.90;;;;;;4749229;30;20468;-75
2023/07/21 06:00:52;;;;;;;15.57;13.97;;;17.80;99.90;;;;;;4733961;30;20451;-76
2023/07/21 06:03:18;;;;;;;15.73;14.23;;;17.80;99.90;;;;;;4735306;30;20510;-75
2023/07/21 06:05:45;;;;;;;18.53;16.63;;;17.80;99.90;;;;;;4735212;30;20467;-75
2023/07/21 06:08:34;;;;;;;13.63;12.33;;;17.80;99.90;;;;;;4751338;30;20423;-75
2023/07/21 06:11:24;;;;;;;20.60;18.40;;;17.90;99.90;;;;;;4730173;30;20462;-75
2023/07/21 06:14:09;;;;;;;18.47;16.57;;;17.90;99.90;;;;;;4738717;30;20427;-76
2023/07/21 06:16:59;;;;;;;13.87;12.47;;;17.90;99.90;;;;;;4739523;30;20443;-75
2023/07/21 06:19:26;;;;;;;18.40;16.80;;;18.00;99.90;;;;;;4753008;30;20431;-77
2023/07/21 06:21:53;;;;;;;15.90;14.40;;;18.10;99.90;;;;;;4738398;30;20442;-76
2023/07/21 06:24:20;;;;;;;12.27;11.17;;;18.20;99.90;;;;;;4753892;30;20426;-75
2023/07/21 06:26:47;;;;;;;11.47;10.33;;;18.50;99.90;;;;;;4755863;30;20437;-76
2023/07/21 06:29:18;;;;;;;13.80;12.23;;;18.90;99.90;;;;;;4757805;30;20414;-78
2023/07/21 06:31:44;;;;;;;18.30;15.50;;;19.30;99.90;;;;;;4759049;30;20452;-77
2023/07/21 06:34:35;;;;;;;12.07;11.03;;;19.70;99.90;;;;;;4759195;30;20460;-76
2023/07/21 06:37:24;;;;;;;10.63;9.63;;;20.10;99.90;;;;;;4771388;30;20422;-75
2023/07/21 06:40:11;;;;;;;11.43;10.23;;;20.60;99.90;;;;;;4751406;30;20443;-75
2023/07/21 06:42:50;;;;;;;17.83;14.60;;;21.10;99.90;;;;;;4754688;30;20435;-76
2023/07/21 06:45:39;;;;;;;14.30;12.97;;;21.40;96.00;;;;;;4743021;30;20439;-76
2023/07/21 06:48:45;;;;;;;18.20;16.37;;;21.40;93.20;;;;;;4755375;30;20419;-77
2023/07/21 06:51:46;;;;;;;12.30;11.10;;;21.20;92.40;;;;;;4397246;27;20497;-75
2023/07/21 06:54:29;;;;;;;9.73;8.73;;;21.40;92.60;;;;;;4745246;30;20431;-77
2023/07/21 06:56:58;;;;;;;14.33;12.93;;;21.70;90.90;;;;;;4746784;30;20427;-77
2023/07/21 06:59:50;;;;;;;30.40;24.70;;;22.00;86.30;;;;;;4774364;30;20472;-76
2023/07/21 07:02:20;;;;;;;20.57;18.40;;;21.90;81.50;;;;;;4774909;30;20731;-77
2023/07/21 07:04:54;;;;;;;17.10;15.33;;;21.70;83.10;;;;;;4760803;30;20415;-76
2023/07/21 07:07:23;;;;;;;14.17;12.87;;;21.30;86.20;;;;;;4758597;30;20431;-75
2023/07/21 07:09:57;;;;;;;13.57;12.37;;;21.00;88.20;;;;;;4964394;24;20485;-76
2023/07/21 07:12:27;;;;;;;21.17;17.73;;;20.90;89.60;;;;;;4777389;29;20444;-76
2023/07/21 07:15:16;;;;;;;14.97;13.43;;;20.60;82.80;;;;;;4751108;30;20469;-77
2023/07/21 07:17:43;;;;;;;9.07;8.20;;;20.40;88.70;;;;;;4777407;30;20409;-76
2023/07/21 07:20:16;;;;;;;9.90;9.00;;;20.60;89.40;;;;;;4758799;30;20427;-76
2023/07/21 07:22:56;;;;;;;16.07;14.47;;;20.70;87.20;;;;;;4740544;30;20436;-77
2023/07/21 07:25:35;;;;;;;15.50;14.13;;;20.80;83.50;;;;;;4739107;30;20447;-77
2023/07/21 07:28:25;;;;;;;11.60;10.50;;;20.90;82.40;;;;;;4725904;30;20421;-77
2023/07/21 07:31:37;;;;;;;14.57;13.20;;;21.10;82.50;;;;;;4758594;30;20427;-77
2023/07/21 07:34:44;;;;;;;10.93;9.97;;;21.30;80.50;;;;;;4758127;30;20438;-80
2023/07/21 07:37:37;;;;;;;12.80;11.60;;;21.50;78.60;;;;;;4757453;30;20424;-77
2023/07/21 07:45:35;;;;;;;15.37;13.80;;;21.70;76.00;;;;;;4890181;24;20579;-76
2023/07/21 07:48:47;;;;;;;16.30;14.33;;;21.40;77.20;;;;;;4764405;29;20418;-79
2023/07/21 07:51:14;;;;;;;20.10;18.13;;;21.30;77.10;;;;;;4745961;30;20458;-77
2023/07/21 07:53:46;;;;;;;15.83;14.33;;;21.10;77.80;;;;;;4759168;30;20474;-79
2023/07/21 07:56:15;;;;;;;15.87;14.37;;;21.20;78.60;;;;;;4790735;30;20495;-78
2023/07/21 07:58:42;;;;;;;17.17;15.47;;;21.30;77.80;;;;;;4768135;30;20433;-75
2023/07/21 08:01:15;;;;;;;11.43;10.40;;;21.40;76.60;;;;;;4759098;30;20536;-75
2023/07/21 08:03:43;;;;;;;13.87;12.50;;;21.60;76.10;;;;;;4761213;30;20426;-78
2023/07/21 08:06:22;;;;;;;13.43;12.33;;;21.80;72.50;;;;;;4760571;30;20418;-77
2023/07/21 08:08:54;;;;;;;13.70;12.40;;;21.90;72.30;;;;;;4757924;30;20426;-78
2023/07/21 08:11:21;;;;;;;15.23;12.93;;;22.00;72.40;;;;;;4788446;30;20493;-76
2023/07/21 08:13:49;;;;;;;14.27;12.80;;;22.10;71.20;;;;;;4773591;30;20461;-75
2023/07/21 08:16:18;;;;;;;11.47;10.33;;;22.20;68.70;;;;;;4774711;30;20465;-77
2023/07/21 08:18:46;;;;;;;13.30;12.20;;;22.40;67.90;;;;;;4776508;30;20426;-77
2023/07/21 08:21:22;;;;;;;18.17;16.47;;;22.50;67.30;;;;;;4775362;30;20509;-76
2023/07/21 08:23:52;;;;;;;19.23;17.40;;;22.50;65.00;;;;;;4754656;30;20435;-76
2023/07/21 08:26:22;;;;;;;17.07;15.47;;;22.30;65.10;;;;;;4740296;30;20443;-78
2023/07/21 08:28:52;;;;;;;15.20;13.80;;;22.20;65.20;;;;;;4725782;30;20447;-78
2023/07/21 08:31:22;;;;;;;12.27;11.13;;;22.30;66.20;;;;;;4742157;30;20456;-79
2023/07/21 08:34:01;;;;;;;17.87;16.20;;;22.50;65.80;;;;;;4724356;30;20428;-76
2023/07/21 08:36:35;;;;;;;14.17;12.87;;;22.70;64.90;;;;;;4725973;30;20523;-76
2023/07/21 08:39:31;;;;;;;17.03;15.53;;;22.90;65.60;;;;;;4724000;30;20524;-78
2023/07/21 08:42:18;;;;;;;13.80;12.60;;;22.90;63.20;;;;;;4723813;30;20427;-78
2023/07/21 08:45:04;;;;;;;17.93;16.33;;;23.00;62.60;;;;;;4734354;30;21145;-79
2023/07/21 08:48:17;;;;;;;12.77;11.53;;;23.00;62.30;;;;;;4692820;30;20437;-78
2023/07/21 08:51:23;;;;;;;15.37;13.30;;;23.00;62.10;;;;;;4720795;30;20520;-77
2023/07/21 08:54:10;;;;;;;14.60;13.30;;;23.00;61.70;;;;;;4713827;30;20447;-79
2023/07/21 08:56:57;;;;;;;16.40;14.80;;;23.00;60.70;;;;;;4725684;30;20571;-79
2023/07/21 09:10:10;;;;;;;11.07;9.40;;;23.10;61.20;;;;;;5776277;24;20447;-77
2023/07/21 09:15:41;;;;;;;9.87;9.00;;;23.10;57.80;;;;;;5113250;24;20496;-78
2023/07/21 09:18:11;;;;;;;12.10;10.90;;;23.10;58.30;;;;;;4819009;24;20572;-76
2023/07/21 09:20:49;;;;;;;9.73;8.80;;;23.10;58.20;;;;;;4798545;29;20465;-75
2023/07/21 09:23:23;;;;;;;13.93;12.77;;;23.30;58.40;;;;;;4758074;30;20487;-76
2023/07/21 09:25:55;;;;;;;12.20;10.23;;;23.40;58.40;;;;;;4724407;30;20480;-79
2023/07/21 09:28:44;;;;;;;10.23;9.23;;;23.50;57.10;;;;;;4740496;30;20409;-77
2023/07/21 09:31:14;;;;;;;10.53;7.07;;;23.50;56.50;;;;;;4726715;30;20491;-76
2023/07/21 09:36:33;;;;;;;7.90;7.10;;;23.80;55.40;;;;;;5014606;24;20511;-79
2023/07/21 09:39:27;;;;;;;7.03;6.17;;;24.10;55.40;;;;;;4749140;30;20448;-77
2023/07/21 09:41:54;;;;;;;13.87;12.57;;;24.40;55.40;;;;;;4778953;30;20501;-77
2023/07/21 09:44:21;;;;;;;9.73;8.93;;;24.30;54.80;;;;;;4764467;29;20464;-77
2023/07/21 09:46:59;;;;;;;9.30;8.40;;;24.30;55.20;;;;;;4781003;29;20452;-79
2023/07/21 09:52:22;;;;;;;4.30;3.90;;;24.10;52.90;;;;;;4879756;24;20529;-77
2023/07/21 10:19:14;;;;;;;6.30;5.67;;;23.60;51.90;;;;;;5348890;24;20459;-79
2023/07/21 10:21:51;;;;;;;3.87;3.57;;;23.50;49.30;;;;;;4773986;30;20449;-78
2023/07/21 10:24:36;;;;;;;4.20;3.80;;;23.70;49.90;;;;;;4762559;30;20448;-75
2023/07/21 10:27:32;;;;;;;4.20;3.63;;;23.90;50.50;;;;;;4748685;30;20435;-78
2023/07/21 10:30:48;;;;;;;3.50;2.87;;;24.20;50.30;;;;;;4760480;29;20442;-79
2023/07/21 10:33:31;;;;;;;6.60;5.17;;;24.50;49.50;;;;;;4763776;30;20443;-77
2023/07/21 10:36:21;;;;;;;4.30;3.10;;;24.30;49.10;;;;;;4775042;30;20675;-79
2023/07/21 10:41:42;;;;;;;4.00;3.60;;;24.30;48.90;;;;;;4983759;24;20492;-78
2023/07/21 10:44:37;;;;;;;5.00;3.00;;;24.30;49.20;;;;;;4794910;29;20433;-79
2023/07/21 10:47:20;;;;;;;4.87;4.37;;;24.40;48.60;;;;;;4757867;30;20427;-79
2023/07/21 10:50:42;;;;;;;5.67;5.03;;;24.30;48.20;;;;;;5043687;24;20493;-78
2023/07/21 10:53:20;;;;;;;5.20;3.53;;;24.30;47.60;;;;;;4764982;30;20408;-78
2023/07/21 10:56:22;;;;;;;5.40;4.00;;;24.40;47.50;;;;;;4794650;29;20463;-79
2023/07/21 11:25:10;;;;;;;5.33;4.83;;;24.10;48.20;;;;;;5090135;24;20489;-80
2023/07/21 11:27:54;;;;;;;4.00;3.60;;;24.30;48.10;;;;;;4748750;30;20496;-79
2023/07/21 11:57:48;;;;;;;4.07;3.53;;;24.60;48.80;;;;;;5440099;24;20476;-78
2023/07/21 12:03:10;;;;;;;4.23;2.87;;;25.10;48.40;;;;;;4768457;27;20485;-78
2023/07/21 12:05:43;;;;;;;5.90;5.00;;;25.30;47.30;;;;;;4797123;29;20413;-77
2023/07/21 12:08:18;;;;;;;7.43;5.13;;;25.20;46.80;;;;;;4796993;30;20472;-78
2023/07/21 12:37:21;;;;;;;6.30;3.57;;;25.10;46.30;;;;;;5219964;24;20511;-78
2023/07/21 12:40:00;;;;;;;6.53;4.60;;;25.20;45.80;;;;;;4992883;24;20488;-79
2023/07/21 12:43:11;;;;;;;3.70;3.20;;;25.10;45.70;;;;;;4752960;30;20417;-77
2023/07/21 12:51:44;;;;;;;3.77;2.40;;;25.10;45.20;;;;;;4798018;29;20511;-78
2023/07/21 12:54:26;;;;;;;2.10;1.90;;;25.30;45.20;;;;;;4791806;29;20413;-78
2023/07/21 12:56:57;;;;;;;3.30;2.10;;;25.50;45.00;;;;;;4791282;30;20473;-79
2023/07/21 12:59:31;;;;;;;2.70;1.97;;;25.60;43.80;;;;;;4733202;30;20474;-77
2023/07/21 13:10:32;;;;;;;2.77;2.47;;;25.20;41.70;;;;;;4664069;24;20825;-79
2023/07/21 13:13:32;;;;;;;2.37;1.83;;;25.20;41.50;;;;;;4818601;29;20436;-78
2023/07/21 13:17:03;;;;;;;2.17;1.73;;;25.50;40.20;;;;;;4778023;30;20473;-79
2023/07/21 13:28:15;;;;;;;4.63;2.47;;;26.30;39.90;;;;;;5753855;24;20452;-79
2023/07/21 13:52:06;;;;;;;13.90;5.17;;;23.90;48.70;;;;;;4517108;24;20561;-78
2023/07/21 13:54:34;;;;;;;7.20;4.47;;;24.10;48.20;;;;;;4760257;30;20423;-79
2023/07/21 13:57:12;;;;;;;11.80;3.80;;;24.00;48.30;;;;;;4764128;30;20437;-79
2023/07/21 13:59:40;;;;;;;7.47;4.20;;;23.80;48.70;;;;;;4747444;30;20546;-78
2023/07/21 14:02:18;;;;;;;4.57;3.03;;;23.60;48.70;;;;;;4761091;30;20418;-78
2023/07/21 14:05:15;;;;;;;9.93;3.23;;;23.60;48.80;;;;;;4758055;30;20463;-79
2023/07/21 14:08:22;;;;;;;5.13;2.60;;;23.50;48.30;;;;;;4745697;30;20414;-79
2023/07/21 14:11:07;;;;;;;3.47;2.40;;;23.40;48.40;;;;;;4758503;30;20746;-78
2023/07/21 14:13:34;;;;;;;4.73;2.20;;;23.50;47.90;;;;;;4717397;30;20432;-78
2023/07/21 14:16:03;;;;;;;2.33;2.07;;;23.50;47.50;;;;;;4845711;24;21033;-79
2023/07/21 14:18:32;;;;;;;4.83;2.40;;;23.40;47.40;;;;;;4766161;30;20379;-79
2023/07/21 14:21:03;;;;;;;5.17;2.67;;;23.20;47.10;;;;;;4782206;29;20440;-78
2023/07/21 14:23:55;;;;;;;4.90;2.20;;;23.00;46.90;;;;;;4760477;30;20406;-79
2023/07/21 14:26:35;;;;;;;6.67;2.60;;;22.80;47.30;;;;;;5123426;24;20496;-79
2023/07/21 14:29:46;;;;;;;2.37;2.17;;;22.40;47.90;;;;;;4809675;29;20452;-79
2023/07/21 14:32:30;;;;;;;5.43;2.20;;;22.00;48.60;;;;;;4815932;29;20423;-79
2023/07/21 14:43:50;;;;;;;3.70;2.47;;;20.70;50.60;;;;;;5047899;24;20499;-78
2023/07/21 14:46:18;;;;;;;3.20;1.93;;;20.70;50.80;;;;;;4771236;29;20427;-78
2023/07/21 14:49:39;;;;;;;6.07;2.10;;;20.40;51.30;;;;;;4815841;29;20388;-79
2023/07/21 14:52:29;;;;;;;3.93;2.77;;;20.20;52.10;;;;;;4910739;24;20480;-80
2023/07/21 14:57:37;;;;;;;3.67;2.33;;;20.00;53.30;;;;;;1212128;27;20500;-79
2023/07/21 15:03:28;;;;;;;4.13;2.20;;;19.80;54.30;;;;;;5245065;24;20604;-77
2023/07/21 15:05:57;;;;;;;4.77;3.00;;;19.70;55.30;;;;;;4784821;29;20467;-79
2023/07/21 15:26:22;;;;;;;3.80;3.40;;;19.20;57.50;;;;;;5411239;24;20796;-78
2023/07/21 15:31:30;;;;;;;3.80;2.97;;;19.20;57.50;;;;;;4855458;24;20483;-78
2023/07/21 15:34:01;;;;;;;4.60;4.20;;;19.20;57.10;;;;;;4829362;29;20509;-78
2023/07/21 16:00:44;;;;;;;2.90;2.40;;;19.80;56.30;;;;;;3203843;24;20521;-79
2023/07/21 16:11:56;;;;;;;4.03;2.87;;;20.10;55.70;;;;;;4922744;24;20476;-78
2023/07/21 16:14:49;;;;;;;3.70;2.50;;;20.30;55.50;;;;;;4813535;29;20431;-78
2023/07/21 16:39:20;;;;;;;3.60;3.10;;;21.20;53.10;;;;;;5066936;24;20499;-78
2023/07/21 16:48:15;;;;;;;4.30;3.37;;;21.10;54.60;;;;;;4774217;29;20411;-79
2023/07/21 16:51:27;;;;;;;3.33;2.50;;;21.20;55.40;;;;;;4764081;29;20439;-78
2023/07/21 16:54:17;;;;;;;5.37;3.30;;;21.40;55.40;;;;;;4786307;29;20464;-78
2023/07/21 16:56:45;;;;;;;3.90;3.50;;;21.50;55.40;;;;;;4939261;24;20491;-79
2023/07/21 17:27:23;;;;;;;7.40;3.60;;;21.00;55.00;;;;;;5518826;24;20597;-79
2023/07/21 17:56:32;;;;;;;4.83;4.33;;;20.10;57.70;;;;;;5002674;24;20487;-79
2023/07/21 17:59:27;;;;;;;7.43;4.97;;;20.10;57.90;;;;;;4815391;29;20416;-79
2023/07/21 18:13:10;;;;;;;7.50;5.23;;;20.20;58.50;;;;;;5297771;24;20483;-79
2023/07/21 18:22:37;;;;;;;5.33;4.83;;;20.10;58.60;;;;;;4562556;24;20484;-78
2023/07/21 18:33:20;;;;;;;5.67;4.40;;;20.90;57.70;;;;;;5074112;24;20479;-79
2023/07/21 18:35:51;;;;;;;5.83;4.10;;;21.50;56.90;;;;;;4816194;29;20480;-79
2023/07/21 18:38:19;;;;;;;5.67;4.20;;;22.10;55.70;;;;;;4770907;29;20432;-79
2023/07/21 18:41:04;;;;;;;5.80;3.83;;;22.60;55.10;;;;;;4797240;30;20428;-80
2023/07/21 18:43:58;;;;;;;9.33;4.73;;;23.10;54.00;;;;;;4796966;30;20405;-79
2023/07/21 18:53:05;;;;;;;5.53;4.53;;;21.70;55.50;;;;;;5379943;24;20479;-79
2023/07/21 19:02:07;;;;;;;6.13;5.53;;;20.20;58.70;;;;;;4578871;28;20482;-78
2023/07/21 19:07:25;;;;;;;6.43;5.77;;;19.60;59.80;;;;;;5498512;24;20489;-78
2023/07/21 19:09:57;;;;;;;7.43;5.50;;;19.40;60.30;;;;;;4922898;24;20508;-78
2023/07/21 19:12:28;;;;;;;5.60;4.77;;;19.30;61.00;;;;;;4776481;30;20470;-78
2023/07/21 19:15:38;;;;;;;6.53;5.83;;;19.10;61.80;;;;;;4777937;30;20476;-79
2023/07/21 19:18:36;;;;;;;6.83;5.90;;;18.90;62.70;;;;;;4776306;30;20497;-78
2023/07/21 19:21:31;;;;;;;9.40;5.67;;;18.80;63.50;;;;;;4753274;30;20507;-78
2023/07/21 19:29:50;;;;;;;9.97;7.57;;;18.40;65.20;;;;;;5008752;24;20503;-79
2023/07/21 19:44:35;;;;;;;7.77;6.30;;;17.90;68.60;;;;;;4990759;24;20484;-79
2023/07/21 19:47:50;;;;;;;8.93;6.30;;;17.90;68.70;;;;;;4811388;30;20415;-79
2023/07/21 19:50:54;;;;;;;8.20;6.20;;;17.80;67.10;;;;;;5359754;24;20528;-78